This is the latest recevied weather packets stored in our database for station/object KC0FGX-1. If no packets are shown the sender has not sent any weather packets the latest 10 day(s).
| Time | Temp. | Humidity | Pressure | Rain* | Wind** | Luminosity | Snow |
|---|---|---|---|---|---|---|---|
| 1777636190 | 1.67° C | 93% | 1016.4 hPa | 0 mm | - | - | - |
| 1777635190 | 0° C | 93% | 1016.1 hPa | 0 mm | - | - | - |
| 1777634189 | -0.56° C | 92% | 1016 hPa | 0 mm | - | - | - |
| 1777633189 | 0° C | 93% | 1016.1 hPa | 0 mm | - | - | - |
| 1777632189 | 0° C | 92% | 1016.1 hPa | 0 mm | - | - | - |
| 1777631189 | 0.56° C | 92% | 1016.2 hPa | 0 mm | - | - | - |
| 1777630189 | 0.56° C | 92% | 1016.3 hPa | 0 mm | - | - | - |
| 1777629189 | 0.56° C | 91% | 1016.2 hPa | 0 mm | - | - | - |
| 1777628229 | 1.11° C | 90% | 1016.2 hPa | 0 mm | - | - | - |
| 1777627269 | 1.11° C | 90% | 1016.1 hPa | 0 mm | - | - | - |
| 1777626309 | 1.11° C | 89% | 1016.3 hPa | 0 mm | - | - | - |
| 1777625350 | 1.67° C | 88% | 1016.3 hPa | 0 mm | - | - | - |
| 1777624869 | 1.67° C | 87% | 1016.3 hPa | 0 mm | - | - | - |
| 1777624389 | 2.22° C | 85% | 1016.4 hPa | 0 mm | - | - | - |
| 1777623909 | 2.22° C | 86% | 1016.4 hPa | 0 mm | - | - | - |
| 1777623429 | 2.22° C | 86% | 1016.4 hPa | 0 mm | - | - | - |
| 1777623189 | 2.22° C | 85% | 1016.4 hPa | 0 mm | - | - | - |
| 1777622949 | 2.22° C | 84% | 1016.3 hPa | 0 mm | - | - | - |
| 1777622709 | 2.22° C | 83% | 1016.2 hPa | 0 mm | - | - | - |
| 1777622469 | 2.78° C | 82% | 1016.2 hPa | 0 mm | - | - | - |
| 1777622349 | 2.78° C | 81% | 1016.3 hPa | 0 mm | - | - | - |
| 1777622229 | 3.33° C | 81% | 1016.3 hPa | 0 mm | - | - | - |
| 1777622109 | 3.33° C | 81% | 1016.3 hPa | 0 mm | - | - | - |
| 1777621989 | 3.33° C | 79% | 1016.4 hPa | 0 mm | - | - | - |
| 1777621929 | 3.89° C | 79% | 1016.3 hPa | 0 mm | - | - | - |
* Rain latest hour (hover to see other rain measurements)
** Current wind speed in m/s (hover to see current wind gust speed)